createdAt,value
2023-06-09T00:09:15.010Z,59.06
2023-06-09T00:11:43.287Z,58.88
2023-06-09T00:14:11.921Z,58.85
2023-06-09T00:16:40.220Z,58.77
2023-06-09T00:19:10.745Z,58.83
2023-06-09T00:21:39.085Z,58.95
2023-06-09T00:24:08.643Z,59.50
2023-06-09T00:26:37.084Z,59.34
2023-06-09T00:29:05.932Z,59.36
2023-06-09T00:31:35.034Z,59.38
2023-06-09T00:34:55.910Z,58.65
2023-06-09T00:37:24.268Z,58.83
2023-06-09T00:39:53.446Z,59.22
2023-06-09T00:46:56.153Z,59.19
2023-06-09T00:49:24.513Z,59.41
2023-06-09T00:51:53.280Z,59.52
2023-06-09T00:54:21.934Z,59.39
2023-06-09T00:56:51.611Z,59.56
2023-06-09T00:59:20.698Z,59.93
2023-06-09T01:01:49.407Z,60.14
2023-06-09T01:04:17.997Z,59.66
2023-06-09T01:07:01.784Z,59.33
2023-06-09T01:10:11.347Z,59.47
2023-06-09T01:12:43.642Z,59.83
2023-06-09T01:16:05.281Z,59.77
2023-06-09T01:18:34.478Z,58.92
2023-06-09T01:21:14.350Z,59.00
2023-06-09T01:28:21.558Z,58.40
2023-06-09T01:30:53.023Z,59.45
2023-06-09T01:38:30.597Z,59.74
2023-06-09T01:40:59.498Z,60.13
2023-06-09T01:43:27.988Z,60.41
2023-06-09T01:45:56.931Z,60.64
2023-06-09T01:48:51.332Z,60.51
2023-06-09T01:51:32.013Z,60.87
2023-06-09T01:54:09.628Z,61.10
2023-06-09T01:56:43.647Z,60.99
2023-06-09T01:59:39.280Z,60.90
2023-06-09T02:02:09.330Z,61.17
2023-06-09T02:04:38.237Z,61.27
2023-06-09T02:16:16.409Z,61.74
2023-06-09T02:18:46.335Z,61.71
2023-06-09T02:21:14.957Z,61.31
2023-06-09T02:23:43.288Z,62.04
2023-06-09T02:26:11.852Z,61.86
2023-06-09T02:28:40.436Z,61.57
2023-06-09T02:35:44.497Z,61.08
2023-06-09T02:38:13.105Z,61.60
2023-06-09T02:40:47.395Z,61.84
2023-06-09T02:43:15.798Z,61.94
2023-06-09T02:45:45.161Z,61.80
2023-06-09T02:48:16.639Z,61.66
2023-06-09T02:50:46.137Z,61.60
2023-06-09T02:53:16.258Z,61.72
2023-06-09T02:55:46.614Z,61.86
2023-06-09T02:58:20.954Z,62.19
2023-06-09T03:00:53.515Z,62.19
2023-06-09T03:03:22.243Z,62.12
2023-06-09T03:05:53.784Z,62.15
2023-06-09T03:08:23.156Z,62.15
2023-06-09T03:11:41.705Z,61.63
2023-06-09T03:14:13.425Z,60.91
2023-06-09T03:16:42.204Z,61.88
2023-06-09T03:19:10.696Z,61.83
2023-06-09T03:30:47.044Z,62.43
2023-06-09T03:33:16.486Z,62.54
2023-06-09T03:35:45.960Z,62.32
2023-06-09T03:38:14.355Z,62.17
2023-06-09T03:40:43.074Z,62.24
2023-06-09T03:47:43.775Z,61.60
2023-06-09T03:50:37.964Z,61.28
2023-06-09T03:53:06.968Z,61.29
2023-06-09T03:55:36.156Z,61.01
2023-06-09T03:58:07.516Z,60.73
2023-06-09T04:00:37.006Z,60.76
2023-06-09T04:03:05.943Z,60.49
2023-06-09T04:10:09.569Z,60.88
2023-06-09T04:13:29.028Z,60.91
2023-06-09T04:15:59.186Z,61.35
2023-06-09T04:18:27.952Z,61.15
2023-06-09T04:20:56.891Z,61.07
2023-06-09T04:23:28.960Z,61.13
2023-06-09T04:25:58.457Z,60.93
2023-06-09T04:33:03.589Z,60.56
2023-06-09T04:40:10.097Z,60.31
2023-06-09T04:42:41.092Z,60.11
2023-06-09T04:45:11.013Z,60.30
2023-06-09T04:52:13.128Z,59.93
2023-06-09T04:54:41.742Z,60.04
2023-06-09T04:57:11.276Z,60.15
2023-06-09T04:59:43.251Z,59.89
2023-06-09T05:02:13.268Z,60.50
2023-06-09T05:05:10.464Z,60.49
2023-06-09T05:07:42.798Z,60.94
2023-06-09T05:10:39.085Z,61.01
2023-06-09T05:18:01.358Z,61.05
2023-06-09T05:20:31.028Z,60.55
2023-06-09T05:22:59.887Z,60.55
2023-06-09T05:25:29.465Z,59.99
2023-06-09T05:27:58.191Z,60.00
2023-06-09T05:30:26.604Z,60.35
2023-06-09T05:32:56.296Z,60.33
2023-06-09T05:39:56.837Z,59.40
2023-06-09T05:42:25.321Z,59.37
2023-06-09T05:44:53.996Z,58.25
2023-06-09T05:47:22.355Z,57.59
2023-06-09T05:51:06.740Z,56.94
2023-06-09T05:53:35.498Z,57.03
2023-06-09T05:56:04.837Z,56.88
2023-06-09T05:58:35.296Z,57.83
2023-06-09T06:01:08.836Z,58.03
2023-06-09T06:03:38.215Z,56.73
2023-06-09T06:10:43.737Z,55.35
2023-06-09T06:14:01.950Z,54.94
2023-06-09T06:16:32.239Z,54.89
2023-06-09T06:19:00.786Z,54.95
2023-06-09T06:21:29.593Z,55.24
2023-06-09T06:23:58.267Z,55.84
2023-06-09T06:26:27.837Z,56.53
2023-06-09T06:28:56.175Z,56.53
2023-06-09T06:32:15.192Z,56.39
2023-06-09T06:34:43.577Z,55.83
2023-06-09T06:37:13.081Z,55.71
2023-06-09T06:39:41.583Z,56.32
2023-06-09T06:42:10.345Z,56.41
2023-06-09T06:44:56.356Z,56.02
2023-06-09T06:47:26.896Z,55.86
2023-06-09T06:49:55.274Z,55.32
2023-06-09T06:52:24.296Z,55.75
2023-06-09T06:54:53.456Z,57.74
2023-06-09T06:57:22.576Z,57.52
2023-06-09T06:59:52.084Z,56.44
2023-06-09T07:02:21.679Z,55.97
2023-06-09T07:04:50.589Z,56.00
2023-06-09T07:07:19.795Z,57.14
2023-06-09T07:09:48.142Z,57.23
2023-06-09T07:12:16.944Z,56.92
2023-06-09T07:14:45.302Z,56.64
2023-06-09T07:17:14.163Z,57.74
2023-06-09T07:19:42.556Z,57.40
2023-06-09T07:22:11.531Z,57.32
2023-06-09T07:24:40.458Z,57.20
2023-06-09T07:27:09.859Z,58.07
2023-06-09T07:29:38.231Z,58.26
2023-06-09T07:32:07.358Z,58.13
2023-06-09T07:34:36.603Z,57.92
2023-06-09T07:37:06.877Z,58.70
2023-06-09T07:39:36.074Z,59.02
2023-06-09T07:42:06.500Z,57.87
2023-06-09T07:44:35.432Z,56.83
2023-06-09T07:47:04.573Z,56.67
2023-06-09T07:49:32.976Z,56.98
2023-06-09T07:52:07.849Z,57.30
2023-06-09T07:54:44.739Z,56.58
2023-06-09T07:57:13.496Z,56.03
2023-06-09T07:59:42.578Z,56.31
2023-06-09T08:02:11.792Z,56.57
2023-06-09T08:04:42.868Z,56.92
2023-06-09T08:07:11.854Z,57.47
2023-06-09T08:09:40.149Z,57.51
2023-06-09T08:12:09.086Z,56.84
2023-06-09T08:14:37.534Z,57.08
2023-06-09T08:17:06.440Z,57.20
2023-06-09T08:19:34.827Z,56.67
2023-06-09T08:22:03.546Z,55.93
2023-06-09T08:24:31.812Z,55.80
2023-06-09T08:27:01.293Z,55.92
2023-06-09T08:29:29.605Z,57.21
2023-06-09T08:31:58.481Z,56.75
2023-06-09T08:34:26.909Z,56.70
2023-06-09T08:36:56.159Z,56.23
2023-06-09T08:39:24.497Z,56.18
2023-06-09T08:41:54.130Z,56.35
2023-06-09T08:44:22.607Z,55.92
2023-06-09T08:46:52.628Z,56.34
2023-06-09T08:49:22.492Z,56.93
2023-06-09T08:51:51.504Z,56.48
2023-06-09T08:54:19.902Z,56.54
2023-06-09T08:56:49.184Z,56.74
2023-06-09T08:59:18.051Z,56.99
2023-06-09T09:01:51.052Z,56.96
2023-06-09T09:04:19.599Z,56.65
2023-06-09T09:06:48.498Z,56.22
2023-06-09T09:09:17.603Z,56.23
2023-06-09T09:11:46.925Z,56.38
2023-06-09T09:14:15.625Z,56.28
2023-06-09T09:16:44.497Z,56.38
2023-06-09T09:19:12.848Z,56.94
2023-06-09T09:21:41.725Z,56.05
2023-06-09T09:24:13.828Z,56.02
2023-06-09T09:26:43.351Z,55.59
2023-06-09T09:29:11.795Z,55.55
2023-06-09T09:31:43.393Z,55.12
2023-06-09T09:34:15.716Z,55.13
2023-06-09T09:36:45.716Z,55.41
2023-06-09T09:39:16.388Z,55.11
2023-06-09T09:42:10.402Z,55.39
2023-06-09T09:44:52.421Z,55.57
2023-06-09T09:47:23.748Z,55.08
2023-06-09T09:50:02.275Z,55.00
2023-06-09T09:52:33.598Z,55.34
2023-06-09T09:55:09.009Z,55.14
2023-06-09T09:57:37.797Z,55.09
2023-06-09T10:00:14.040Z,54.65
2023-06-09T10:02:46.736Z,54.48
2023-06-09T10:05:17.687Z,54.29
2023-06-09T10:07:49.802Z,54.16
2023-06-09T10:10:18.937Z,53.97
2023-06-09T10:12:48.205Z,53.80
2023-06-09T10:15:16.771Z,53.53
2023-06-09T10:17:45.597Z,53.30
2023-06-09T10:22:45.163Z,52.74
2023-06-09T10:25:14.224Z,52.65
2023-06-09T10:27:43.987Z,52.56
2023-06-09T10:30:16.188Z,52.88
2023-06-09T10:38:33.191Z,51.64
2023-06-09T10:41:10.162Z,50.99
2023-06-09T10:44:19.829Z,50.75
2023-06-09T10:46:50.688Z,50.52
2023-06-09T10:49:28.036Z,50.46
2023-06-09T10:51:57.172Z,50.23
2023-06-09T10:54:31.208Z,50.06
2023-06-09T10:57:08.213Z,50.40
2023-06-09T10:59:36.433Z,51.01
2023-06-09T11:02:09.667Z,50.43
2023-06-09T11:04:46.449Z,50.41
2023-06-09T11:07:17.702Z,50.13
2023-06-09T11:09:48.695Z,50.61
2023-06-09T11:12:28.372Z,50.67
2023-06-09T11:15:00.618Z,51.20
2023-06-09T11:17:38.668Z,51.03
2023-06-09T11:20:13.630Z,51.18
2023-06-09T11:22:42.314Z,51.12
2023-06-09T11:25:31.474Z,51.20
2023-06-09T11:28:00.951Z,51.08
2023-06-09T11:30:31.485Z,50.77
2023-06-09T11:33:08.304Z,50.56
2023-06-09T11:35:44.944Z,50.12
2023-06-09T11:38:20.980Z,50.94
2023-06-09T11:40:53.429Z,50.83
2023-06-09T11:43:22.822Z,50.16
2023-06-09T11:45:51.480Z,50.27
2023-06-09T11:48:20.060Z,49.61
2023-06-09T11:50:48.730Z,49.91
2023-06-09T11:53:18.760Z,48.74
2023-06-09T11:55:48.157Z,47.50
2023-06-09T11:58:18.275Z,47.81
2023-06-09T12:00:48.806Z,47.79
2023-06-09T12:03:21.002Z,47.94
2023-06-09T12:05:53.215Z,48.32
2023-06-09T12:08:23.162Z,48.16
2023-06-09T12:10:51.400Z,48.53
2023-06-09T12:13:21.134Z,49.03
2023-06-09T12:15:53.371Z,49.21
2023-06-09T12:18:22.739Z,49.09
2023-06-09T12:20:54.857Z,48.59
2023-06-09T12:23:29.255Z,48.64
2023-06-09T12:25:57.611Z,49.21
2023-06-09T12:28:29.423Z,48.85
2023-06-09T12:31:08.026Z,48.54
2023-06-09T12:33:38.314Z,48.01
2023-06-09T12:36:11.886Z,47.93
2023-06-09T12:38:42.177Z,47.50
2023-06-09T12:41:12.822Z,48.05
2023-06-09T12:43:49.707Z,46.87
2023-06-09T12:46:42.513Z,47.63
2023-06-09T12:49:11.717Z,47.95
2023-06-09T12:51:43.405Z,47.86
2023-06-09T12:54:15.136Z,47.67
2023-06-09T12:56:43.334Z,47.66
2023-06-09T12:59:13.437Z,47.96
2023-06-09T13:01:41.724Z,47.82
2023-06-09T13:04:10.354Z,48.73
2023-06-09T13:06:39.139Z,47.80
2023-06-09T13:09:07.447Z,48.58
2023-06-09T13:11:36.012Z,49.14
2023-06-09T13:14:04.451Z,48.83
2023-06-09T13:16:34.074Z,48.59
2023-06-09T13:19:02.331Z,47.79
2023-06-09T13:24:03.247Z,48.55
2023-06-09T13:26:31.881Z,48.45
2023-06-09T13:29:00.061Z,48.27
2023-06-09T13:31:30.657Z,47.93
2023-06-09T13:33:58.941Z,47.72
2023-06-09T13:36:27.677Z,48.04
2023-06-09T13:38:55.833Z,47.48
2023-06-09T13:41:24.873Z,47.32
2023-06-09T13:43:53.170Z,47.50
2023-06-09T13:46:21.823Z,46.61
2023-06-09T13:48:50.415Z,46.90
2023-06-09T13:51:20.437Z,46.70
2023-06-09T13:53:48.596Z,46.96
2023-06-09T13:56:20.756Z,46.09
2023-06-09T13:58:49.038Z,45.79
2023-06-09T14:01:17.894Z,45.16
2023-06-09T14:03:46.246Z,45.83
2023-06-09T14:06:14.957Z,45.88
2023-06-09T14:08:43.238Z,46.01
2023-06-09T14:11:11.868Z,46.95
2023-06-09T14:13:40.302Z,47.28
2023-06-09T14:16:08.890Z,46.33
2023-06-09T14:18:37.806Z,46.48
2023-06-09T14:21:06.848Z,46.87
2023-06-09T14:23:35.007Z,45.38
2023-06-09T14:26:04.133Z,45.61
2023-06-09T14:28:32.538Z,45.44
2023-06-09T14:31:01.058Z,45.25
2023-06-09T14:33:29.321Z,45.13
2023-06-09T14:35:57.832Z,45.89
2023-06-09T14:38:26.155Z,46.26
2023-06-09T14:40:55.207Z,45.92
2023-06-09T14:43:23.653Z,46.02
2023-06-09T14:45:52.364Z,46.32
2023-06-09T14:48:20.719Z,46.28
2023-06-09T14:50:50.037Z,46.42
2023-06-09T14:53:18.640Z,45.09
2023-06-09T14:55:49.190Z,46.32
2023-06-09T14:58:19.352Z,46.00
2023-06-09T15:00:48.445Z,45.83
2023-06-09T15:03:18.302Z,45.84
2023-06-09T15:05:47.534Z,45.82
2023-06-09T15:08:15.883Z,45.84
2023-06-09T15:10:46.237Z,45.63
2023-06-09T15:13:18.184Z,44.99
2023-06-09T15:15:46.863Z,43.87
2023-06-09T15:18:15.815Z,43.39
2023-06-09T15:20:44.460Z,43.98
2023-06-09T15:23:13.445Z,44.39
2023-06-09T15:25:45.245Z,45.11
2023-06-09T15:28:17.254Z,45.41
2023-06-09T15:30:47.758Z,45.37
2023-06-09T15:33:20.728Z,45.18
2023-06-09T15:35:54.167Z,44.77
2023-06-09T15:38:31.193Z,44.37
2023-06-09T15:40:59.874Z,44.43
2023-06-09T15:43:35.260Z,44.71
2023-06-09T15:46:04.624Z,44.99
2023-06-09T15:48:34.810Z,44.90
2023-06-09T15:51:04.540Z,45.10
2023-06-09T15:53:32.710Z,45.10
2023-06-09T15:56:01.326Z,45.17
2023-06-09T15:58:29.579Z,45.24
2023-06-09T16:00:58.265Z,45.09
2023-06-09T16:03:29.707Z,45.17
2023-06-09T16:05:59.954Z,44.95
2023-06-09T16:08:28.291Z,45.46
2023-06-09T16:10:56.958Z,45.75
2023-06-09T16:13:25.192Z,45.55
2023-06-09T16:15:53.735Z,46.30
2023-06-09T16:18:23.303Z,46.50
2023-06-09T16:20:51.948Z,46.38
2023-06-09T16:23:20.268Z,46.61
2023-06-09T16:25:48.729Z,46.98
2023-06-09T16:28:17.045Z,47.01
2023-06-09T16:30:46.178Z,46.67
2023-06-09T16:33:14.384Z,45.87
2023-06-09T16:35:42.905Z,44.32
2023-06-09T16:38:11.153Z,44.78
2023-06-09T16:40:40.431Z,45.15
2023-06-09T16:43:08.800Z,45.84
2023-06-09T16:45:37.351Z,46.00
2023-06-09T16:48:05.841Z,46.01
2023-06-09T16:50:34.364Z,45.57
2023-06-09T16:53:03.185Z,44.73
2023-06-09T16:55:31.682Z,45.06
2023-06-09T16:57:59.910Z,45.40
2023-06-09T17:00:28.436Z,45.65
2023-06-09T17:02:56.886Z,45.31
2023-06-09T17:05:26.409Z,44.94
2023-06-09T17:07:54.742Z,44.53
2023-06-09T17:10:23.488Z,44.67
2023-06-09T17:12:51.798Z,45.49
2023-06-09T17:15:20.382Z,46.08
2023-06-09T17:17:48.837Z,46.37
2023-06-09T17:20:18.165Z,46.77
2023-06-09T17:22:46.599Z,47.18
2023-06-09T17:25:16.183Z,47.00
2023-06-09T17:27:46.633Z,46.77
2023-06-09T17:30:15.635Z,46.81
2023-06-09T17:32:45.421Z,46.63
2023-06-09T17:35:14.382Z,46.88
2023-06-09T17:37:43.273Z,47.12
2023-06-09T17:40:12.628Z,46.99
2023-06-09T17:42:41.455Z,46.84
2023-06-09T17:45:11.664Z,46.69
2023-06-09T17:47:40.521Z,46.94
2023-06-09T17:50:09.826Z,46.86
2023-06-09T17:52:38.059Z,46.83
2023-06-09T17:55:07.500Z,47.10
2023-06-09T17:57:36.165Z,47.02
2023-06-09T18:00:08.465Z,47.13
2023-06-09T18:02:39.629Z,47.26
2023-06-09T18:05:10.033Z,47.58
2023-06-09T18:07:38.429Z,47.53
2023-06-09T18:10:07.664Z,47.60
2023-06-09T18:12:36.336Z,48.16
2023-06-09T18:15:05.350Z,48.48
2023-06-09T18:17:33.729Z,48.79
2023-06-09T18:20:02.577Z,48.68
2023-06-09T18:22:31.896Z,48.69
2023-06-09T18:25:00.525Z,48.66
2023-06-09T18:27:28.749Z,48.61
2023-06-09T18:29:57.318Z,48.95
2023-06-09T18:32:25.523Z,49.35
2023-06-09T18:34:54.047Z,49.38
2023-06-09T18:37:22.304Z,49.60
2023-06-09T18:39:50.966Z,49.94
2023-06-09T18:42:19.488Z,50.13
2023-06-09T18:44:48.096Z,50.34
2023-06-09T18:47:16.587Z,50.46
2023-06-09T18:49:46.249Z,50.40
2023-06-09T18:52:15.519Z,50.43
2023-06-09T18:54:44.182Z,50.40
2023-06-09T18:57:12.716Z,50.79
2023-06-09T18:59:41.314Z,51.28
2023-06-09T19:02:09.585Z,51.46
2023-06-09T19:04:38.714Z,51.26
2023-06-09T19:07:07.051Z,51.16
2023-06-09T19:09:35.798Z,51.39
2023-06-09T19:12:04.350Z,51.54
2023-06-09T19:14:33.004Z,51.97
2023-06-09T19:17:01.230Z,51.82
2023-06-09T19:19:29.775Z,51.80
2023-06-09T19:21:58.115Z,51.71
2023-06-09T19:24:26.751Z,51.93
2023-06-09T19:26:55.195Z,52.44
2023-06-09T19:29:24.633Z,52.16
2023-06-09T19:31:53.147Z,52.20
2023-06-09T19:34:23.783Z,52.12
2023-06-09T19:36:52.706Z,51.60
2023-06-09T19:39:21.627Z,52.00
2023-06-09T19:41:50.680Z,51.82
2023-06-09T19:44:19.368Z,52.20
2023-06-09T19:46:47.727Z,51.93
2023-06-09T19:49:16.800Z,51.95
2023-06-09T19:51:45.210Z,51.70
2023-06-09T19:54:13.875Z,51.56
2023-06-09T19:56:49.159Z,51.25
2023-06-09T19:59:19.330Z,51.55
2023-06-09T20:01:47.967Z,51.38
2023-06-09T20:04:16.657Z,51.12
2023-06-09T20:06:44.936Z,51.05
2023-06-09T20:09:13.756Z,51.01
2023-06-09T20:11:42.193Z,51.22
2023-06-09T20:14:10.944Z,51.43
2023-06-09T20:16:39.825Z,51.39
2023-06-09T20:19:08.664Z,51.17
2023-06-09T20:21:37.574Z,51.58
2023-06-09T20:24:07.514Z,51.60
2023-06-09T20:26:39.356Z,51.52
2023-06-09T20:29:07.923Z,51.48
2023-06-09T20:31:36.153Z,51.39
2023-06-09T20:34:04.633Z,51.01
2023-06-09T20:36:39.301Z,51.10
2023-06-09T20:39:10.400Z,50.46
2023-06-09T20:41:38.791Z,51.14
2023-06-09T20:44:08.011Z,51.18
2023-06-09T20:46:36.895Z,50.91
2023-06-09T20:49:05.597Z,50.86
2023-06-09T20:51:33.753Z,51.14
2023-06-09T20:54:02.265Z,50.95
2023-06-09T20:56:31.176Z,51.09
2023-06-09T20:58:59.892Z,51.03
2023-06-09T21:01:30.598Z,51.28
2023-06-09T21:03:59.271Z,51.17
2023-06-09T21:06:31.516Z,51.14
2023-06-09T21:09:00.123Z,50.95
2023-06-09T21:11:28.428Z,51.14
2023-06-09T21:13:57.218Z,51.14
2023-06-09T21:16:25.940Z,51.00
2023-06-09T21:18:54.831Z,51.37
2023-06-09T21:21:23.149Z,51.36
2023-06-09T21:23:51.748Z,51.51
2023-06-09T21:26:20.191Z,51.79
2023-06-09T21:28:48.717Z,51.62
2023-06-09T21:31:17.125Z,52.05
2023-06-09T21:33:45.754Z,51.94
2023-06-09T21:36:14.029Z,51.81
2023-06-09T21:38:42.910Z,51.87
2023-06-09T21:41:11.200Z,51.49
2023-06-09T21:43:39.805Z,51.61
2023-06-09T21:46:08.085Z,51.83
2023-06-09T21:48:36.899Z,51.76
2023-06-09T21:51:05.179Z,51.80
2023-06-09T21:53:33.747Z,51.84
2023-06-09T21:56:01.987Z,51.68
2023-06-09T21:58:30.610Z,51.81
2023-06-09T22:00:58.954Z,52.07
2023-06-09T22:03:27.660Z,51.75
2023-06-09T22:05:55.737Z,52.14
2023-06-09T22:08:24.290Z,51.75
2023-06-09T22:10:52.515Z,51.87
2023-06-09T22:13:21.525Z,52.17
2023-06-09T22:15:49.751Z,52.13
2023-06-09T22:18:18.609Z,51.78
2023-06-09T22:20:48.442Z,51.93
2023-06-09T22:23:17.202Z,52.05
2023-06-09T22:25:45.423Z,52.23
2023-06-09T22:28:14.018Z,52.50
2023-06-09T22:30:42.514Z,52.51
2023-06-09T22:33:11.653Z,52.78
2023-06-09T22:35:39.927Z,53.15
2023-06-09T22:40:50.642Z,53.15
2023-06-09T22:43:20.189Z,53.51
2023-06-09T22:45:48.456Z,53.75
2023-06-09T22:48:19.288Z,54.09
2023-06-09T22:50:49.361Z,54.29
2023-06-09T22:53:18.298Z,54.05
2023-06-09T22:55:46.876Z,54.44
2023-06-09T22:58:15.847Z,54.71
2023-06-09T23:00:44.127Z,54.58
2023-06-09T23:03:12.796Z,54.74
2023-06-09T23:05:55.710Z,54.85
2023-06-09T23:08:25.334Z,55.00
2023-06-09T23:10:53.758Z,55.10
2023-06-09T23:13:22.472Z,55.22
2023-06-09T23:15:53.447Z,55.29
2023-06-09T23:18:23.196Z,55.50
2023-06-09T23:20:51.539Z,55.85
2023-06-09T23:23:23.288Z,56.04
2023-06-09T23:25:51.599Z,56.19
2023-06-09T23:28:20.250Z,56.29
2023-06-09T23:30:48.480Z,56.33
2023-06-09T23:33:19.156Z,56.56
2023-06-09T23:35:47.566Z,56.59
2023-06-09T23:38:16.163Z,56.71
2023-06-09T23:40:45.682Z,56.76
2023-06-09T23:43:14.318Z,56.57
2023-06-09T23:45:42.775Z,56.86
2023-06-09T23:48:11.633Z,56.87
2023-06-09T23:50:39.923Z,56.80
2023-06-09T23:53:18.941Z,57.08
2023-06-09T23:55:47.644Z,56.89
2023-06-09T23:58:18.355Z,56.82
